createdAt,value
2019-03-24T00:01:52.583Z,61.53
2019-03-24T00:04:54.493Z,61.50
2019-03-24T00:07:56.961Z,61.57
2019-03-24T00:10:59.059Z,61.72
2019-03-24T00:14:00.971Z,62.02
2019-03-24T00:17:02.862Z,61.99
2019-03-24T00:20:05.748Z,62.23
2019-03-24T00:23:07.639Z,61.98
2019-03-24T00:26:09.557Z,62.31
2019-03-24T00:29:11.591Z,62.15
2019-03-24T00:32:13.529Z,62.13
2019-03-24T00:35:15.640Z,62.23
2019-03-24T00:38:17.541Z,62.38
2019-03-24T00:41:19.510Z,62.28
2019-03-24T00:44:21.381Z,62.16
2019-03-24T00:47:23.316Z,61.80
2019-03-24T00:50:25.234Z,61.65
2019-03-24T00:53:27.148Z,61.29
2019-03-24T00:56:29.092Z,61.13
2019-03-24T00:59:31.032Z,61.14
2019-03-24T01:02:33.026Z,61.15
2019-03-24T01:05:34.986Z,61.29
2019-03-24T01:08:36.845Z,61.45
2019-03-24T01:11:38.742Z,61.55
2019-03-24T01:14:40.663Z,61.75
2019-03-24T01:17:42.550Z,61.83
2019-03-24T01:20:44.440Z,61.79
2019-03-24T01:23:46.364Z,61.63
2019-03-24T01:26:48.339Z,61.42
2019-03-24T01:29:50.172Z,60.85
2019-03-24T01:32:52.208Z,60.65
2019-03-24T01:35:55.138Z,60.23
2019-03-24T01:38:56.989Z,60.01
2019-03-24T01:41:58.863Z,59.65
2019-03-24T01:45:01.339Z,59.32
2019-03-24T01:48:03.428Z,58.91
2019-03-24T01:51:05.346Z,58.90
2019-03-24T01:54:07.220Z,58.84
2019-03-24T01:57:09.346Z,58.48
2019-03-24T02:00:11.423Z,58.36
2019-03-24T02:03:13.658Z,58.49
2019-03-24T02:06:15.541Z,58.35
2019-03-24T02:09:17.539Z,58.31
2019-03-24T02:12:20.507Z,58.39
2019-03-24T02:15:22.541Z,58.26
2019-03-24T02:18:24.366Z,58.12
2019-03-24T02:21:28.094Z,58.16
2019-03-24T02:24:29.976Z,58.30
2019-03-24T02:27:31.977Z,58.30
2019-03-24T02:30:33.892Z,58.37
2019-03-24T02:33:35.908Z,58.38
2019-03-24T02:36:38.119Z,58.33
2019-03-24T02:39:39.970Z,58.32
2019-03-24T02:42:41.849Z,58.42
2019-03-24T02:45:44.145Z,58.51
2019-03-24T02:48:46.107Z,58.51
2019-03-24T02:51:47.983Z,58.27
2019-03-24T02:54:49.870Z,58.24
2019-03-24T02:57:51.723Z,58.31
2019-03-24T03:00:53.648Z,58.27
2019-03-24T03:03:55.574Z,58.25
2019-03-24T03:06:57.499Z,58.19
2019-03-24T03:09:59.340Z,58.18
2019-03-24T03:13:01.244Z,58.21
2019-03-24T03:16:03.189Z,58.35
2019-03-24T03:19:05.092Z,58.46
2019-03-24T03:22:06.932Z,58.56
2019-03-24T03:25:09.690Z,58.51
2019-03-24T03:28:11.577Z,58.42
2019-03-24T03:31:13.502Z,58.44
2019-03-24T03:34:15.449Z,58.49
2019-03-24T03:37:17.387Z,58.55
2019-03-24T03:40:20.180Z,58.61
2019-03-24T03:43:22.081Z,58.62
2019-03-24T03:46:24.057Z,58.55
2019-03-24T03:49:25.974Z,58.51
2019-03-24T03:52:28.188Z,58.49
2019-03-24T03:55:30.062Z,58.46
2019-03-24T03:58:31.921Z,58.37
2019-03-24T04:01:33.870Z,58.26
2019-03-24T04:04:36.057Z,58.50
2019-03-24T04:07:38.046Z,58.40
2019-03-24T04:10:39.890Z,58.51
2019-03-24T04:13:41.791Z,58.45
2019-03-24T04:16:43.660Z,58.42
2019-03-24T04:19:45.620Z,58.29
2019-03-24T04:22:47.545Z,58.33
2019-03-24T04:25:49.502Z,58.44
2019-03-24T04:28:51.419Z,58.59
2019-03-24T04:31:53.320Z,58.48
2019-03-24T04:34:55.227Z,58.36
2019-03-24T04:37:57.195Z,58.49
2019-03-24T04:40:59.117Z,58.54
2019-03-24T04:44:01.096Z,58.51
2019-03-24T04:47:03.026Z,58.45
2019-03-24T04:50:07.060Z,58.58
2019-03-24T04:53:09.562Z,58.72
2019-03-24T04:56:11.465Z,58.70
2019-03-24T04:59:13.367Z,58.71
2019-03-24T05:02:15.331Z,58.64
2019-03-24T05:05:17.228Z,58.59
2019-03-24T05:08:19.151Z,58.64
2019-03-24T05:11:21.031Z,58.56
2019-03-24T05:14:22.947Z,58.19
2019-03-24T05:17:27.321Z,57.70
2019-03-24T05:20:29.016Z,57.30
2019-03-24T05:23:30.911Z,57.38
2019-03-24T05:26:32.827Z,57.75
2019-03-24T05:29:34.687Z,57.70
2019-03-24T05:32:36.903Z,57.74
2019-03-24T05:35:38.831Z,57.55
2019-03-24T05:38:40.795Z,57.58
2019-03-24T05:41:42.716Z,57.54
2019-03-24T05:44:44.671Z,57.40
2019-03-24T05:47:46.583Z,57.33
2019-03-24T05:50:48.520Z,57.17
2019-03-24T05:53:50.873Z,56.74
2019-03-24T05:56:52.781Z,56.38
2019-03-24T05:59:54.761Z,55.97
2019-03-24T06:02:57.400Z,55.69
2019-03-24T06:05:59.405Z,54.99
2019-03-24T06:09:01.271Z,53.03
2019-03-24T06:12:03.355Z,51.21
2019-03-24T06:15:07.130Z,49.39
2019-03-24T06:18:09.036Z,48.10
2019-03-24T06:21:10.980Z,47.00
2019-03-24T06:24:13.008Z,45.58
2019-03-24T06:27:14.909Z,43.86
2019-03-24T06:30:17.416Z,42.28
2019-03-24T06:33:19.267Z,41.22
2019-03-24T06:36:21.343Z,40.78
2019-03-24T06:39:23.272Z,41.01
2019-03-24T06:42:25.117Z,41.25
2019-03-24T06:45:28.669Z,41.22
2019-03-24T06:48:30.738Z,40.27
2019-03-24T06:51:32.589Z,41.23
2019-03-24T06:54:34.492Z,41.46
2019-03-24T06:57:36.337Z,41.71
2019-03-24T07:00:38.226Z,42.24
2019-03-24T07:03:41.185Z,42.42
2019-03-24T07:06:43.116Z,42.25
2019-03-24T07:09:45.002Z,42.51
2019-03-24T07:12:47.168Z,42.53
2019-03-24T07:15:49.057Z,42.32
2019-03-24T07:18:50.938Z,42.37
2019-03-24T07:21:52.808Z,42.22
2019-03-24T07:24:54.687Z,41.93
2019-03-24T07:27:56.618Z,41.36
2019-03-24T07:30:58.614Z,41.68
2019-03-24T07:34:00.491Z,41.55
2019-03-24T07:37:02.540Z,40.80
2019-03-24T07:40:07.411Z,41.50
2019-03-24T07:43:09.345Z,41.57
2019-03-24T07:46:11.273Z,41.59
2019-03-24T07:49:13.102Z,41.90
2019-03-24T07:52:15.072Z,41.60
2019-03-24T07:55:16.991Z,41.63
2019-03-24T07:58:18.833Z,41.49
2019-03-24T08:01:20.751Z,41.58
2019-03-24T08:04:22.607Z,41.32
2019-03-24T08:07:24.626Z,41.89
2019-03-24T08:10:26.499Z,41.72
2019-03-24T08:13:29.456Z,41.90
2019-03-24T08:16:31.428Z,41.21
2019-03-24T08:19:33.309Z,41.20
2019-03-24T08:22:35.183Z,40.93
2019-03-24T08:25:37.139Z,40.31
2019-03-24T08:28:39.027Z,40.33
2019-03-24T08:31:40.981Z,40.50
2019-03-24T08:34:42.862Z,40.65
2019-03-24T08:37:44.804Z,40.42
2019-03-24T08:40:46.789Z,39.92
2019-03-24T08:43:48.903Z,39.45
2019-03-24T08:46:50.822Z,38.41
2019-03-24T08:49:52.779Z,37.69
2019-03-24T08:52:54.733Z,37.98
2019-03-24T08:55:56.622Z,37.70
2019-03-24T08:58:58.497Z,37.53
2019-03-24T09:02:00.450Z,37.58
2019-03-24T09:05:04.029Z,37.30
2019-03-24T09:08:07.388Z,37.69
2019-03-24T09:11:09.293Z,37.79
2019-03-24T09:14:11.265Z,37.60
2019-03-24T09:17:13.222Z,37.53
2019-03-24T09:20:15.229Z,37.67
2019-03-24T09:23:17.191Z,37.79
2019-03-24T09:26:19.151Z,38.46
2019-03-24T09:29:21.671Z,39.33
2019-03-24T09:32:23.730Z,36.51
2019-03-24T09:35:25.729Z,37.76
2019-03-24T09:38:27.715Z,37.89
2019-03-24T09:41:29.793Z,38.15
2019-03-24T09:44:31.757Z,38.05
2019-03-24T09:47:34.183Z,38.10
2019-03-24T09:50:36.079Z,37.20
2019-03-24T09:53:38.091Z,36.57
2019-03-24T09:56:40.034Z,35.26
2019-03-24T09:59:42.994Z,35.33
2019-03-24T10:02:44.893Z,35.02
2019-03-24T10:05:46.846Z,34.95
2019-03-24T10:08:48.771Z,34.98
2019-03-24T10:11:50.734Z,34.83
2019-03-24T10:14:52.688Z,34.73
2019-03-24T10:17:54.580Z,35.17
2019-03-24T10:20:56.602Z,35.28
2019-03-24T10:23:58.550Z,35.79
2019-03-24T10:27:01.485Z,36.04
2019-03-24T10:30:08.066Z,36.71
2019-03-24T10:33:09.998Z,36.61
2019-03-24T10:36:12.037Z,36.35
2019-03-24T10:39:14.031Z,35.95
2019-03-24T10:42:16.076Z,36.42
2019-03-24T10:45:18.025Z,36.22
2019-03-24T10:48:19.938Z,36.51
2019-03-24T10:51:22.489Z,36.32
2019-03-24T10:54:24.358Z,35.74
2019-03-24T10:57:26.287Z,36.09
2019-03-24T11:00:41.578Z,36.13
2019-03-24T11:03:44.019Z,36.78
2019-03-24T11:06:45.955Z,36.44
2019-03-24T11:09:49.162Z,36.58
2019-03-24T11:12:52.211Z,37.14
2019-03-24T11:15:54.165Z,36.47
2019-03-24T11:18:56.082Z,36.29
2019-03-24T11:21:58.157Z,36.42
2019-03-24T11:25:00.302Z,36.47
2019-03-24T11:28:02.280Z,36.22
2019-03-24T11:31:04.224Z,36.07
2019-03-24T11:34:06.159Z,35.29
2019-03-24T11:37:08.122Z,36.93
2019-03-24T11:40:10.634Z,36.63
2019-03-24T11:43:12.770Z,36.79
2019-03-24T11:46:14.629Z,36.24
2019-03-24T11:49:17.476Z,35.71
2019-03-24T11:52:19.474Z,34.72
2019-03-24T11:55:21.444Z,34.11
2019-03-24T11:58:23.461Z,34.18
2019-03-24T12:01:25.434Z,33.90
2019-03-24T12:04:27.340Z,33.91
2019-03-24T12:07:29.225Z,34.03
2019-03-24T12:10:31.261Z,34.08
2019-03-24T12:13:34.617Z,34.31
2019-03-24T12:16:36.597Z,33.65
2019-03-24T12:19:38.554Z,35.06
2019-03-24T12:22:40.525Z,35.36
2019-03-24T12:25:42.543Z,36.53
2019-03-24T12:28:44.378Z,37.44
2019-03-24T12:31:46.331Z,37.28
2019-03-24T12:34:48.304Z,35.65
2019-03-24T12:37:50.267Z,35.02
2019-03-24T12:40:52.269Z,34.90
2019-03-24T12:43:54.335Z,35.13
2019-03-24T12:46:56.258Z,35.31
2019-03-24T12:50:08.261Z,34.94
2019-03-24T12:53:02.697Z,34.59
2019-03-24T12:56:04.727Z,35.96
2019-03-24T12:59:06.726Z,34.76
2019-03-24T13:02:08.740Z,34.39
2019-03-24T13:05:11.957Z,34.74
2019-03-24T13:08:15.994Z,35.11
2019-03-24T13:11:19.079Z,35.86
2019-03-24T13:14:21.066Z,36.95
2019-03-24T13:17:22.982Z,37.33
2019-03-24T13:20:37.741Z,37.17
2019-03-24T13:23:28.740Z,37.41
2019-03-24T13:26:30.855Z,37.94
2019-03-24T13:29:32.762Z,38.52
2019-03-24T13:32:34.686Z,37.85
2019-03-24T13:35:36.624Z,38.25
2019-03-24T13:38:38.576Z,37.88
2019-03-24T13:41:40.561Z,37.62
2019-03-24T13:44:42.601Z,37.74
2019-03-24T13:47:44.534Z,37.12
2019-03-24T13:50:46.459Z,37.03
2019-03-24T13:53:48.410Z,37.92
2019-03-24T13:56:50.372Z,38.07
2019-03-24T13:59:52.281Z,37.91
2019-03-24T14:02:54.427Z,38.27
2019-03-24T14:05:56.324Z,38.01
2019-03-24T14:08:58.376Z,38.25
2019-03-24T14:12:01.213Z,38.39
2019-03-24T14:15:05.022Z,38.18
2019-03-24T14:18:06.973Z,38.29
2019-03-24T14:21:08.938Z,38.66
2019-03-24T14:24:10.866Z,38.84
2019-03-24T14:27:12.811Z,39.17
2019-03-24T14:30:15.191Z,39.82
2019-03-24T14:33:17.096Z,39.98
2019-03-24T14:36:19.057Z,40.58
2019-03-24T14:39:21.003Z,41.02
2019-03-24T14:42:22.997Z,40.94
2019-03-24T14:45:25.099Z,40.61
2019-03-24T14:48:27.056Z,40.27
2019-03-24T14:51:29.019Z,40.70
2019-03-24T14:54:30.986Z,41.54
2019-03-24T14:57:32.925Z,41.69
2019-03-24T15:00:37.164Z,42.12
2019-03-24T15:03:39.104Z,42.32
2019-03-24T15:06:41.063Z,42.23
2019-03-24T15:09:42.982Z,42.27
2019-03-24T15:12:45.035Z,42.79
2019-03-24T15:15:46.997Z,43.27
2019-03-24T15:18:49.016Z,43.78
2019-03-24T15:21:50.978Z,44.03
2019-03-24T15:24:52.889Z,44.12
2019-03-24T15:27:54.841Z,44.05
2019-03-24T15:30:56.733Z,43.89
2019-03-24T15:33:58.743Z,44.09
2019-03-24T15:37:00.611Z,44.41
2019-03-24T15:40:04.282Z,44.16
2019-03-24T15:43:06.264Z,44.24
2019-03-24T15:46:08.181Z,44.08
2019-03-24T15:49:10.117Z,43.83
2019-03-24T15:52:12.036Z,44.19
2019-03-24T15:55:13.957Z,45.18
2019-03-24T15:58:15.842Z,45.08
2019-03-24T16:01:17.778Z,45.18
2019-03-24T16:04:19.645Z,45.56
2019-03-24T16:07:21.669Z,45.12
2019-03-24T16:10:34.700Z,44.98
2019-03-24T16:13:28.143Z,45.00
2019-03-24T16:16:30.104Z,45.62
2019-03-24T16:19:32.000Z,45.52
2019-03-24T16:22:33.960Z,45.57
2019-03-24T16:25:37.630Z,45.88
2019-03-24T16:28:40.582Z,46.00
2019-03-24T16:31:42.459Z,45.87
2019-03-24T16:34:44.411Z,45.79
2019-03-24T16:37:46.345Z,46.22
2019-03-24T16:40:48.292Z,46.00
2019-03-24T16:43:50.256Z,46.30
2019-03-24T16:46:52.297Z,46.29
2019-03-24T16:49:55.839Z,46.63
2019-03-24T16:52:58.645Z,46.46
2019-03-24T16:56:02.800Z,46.50
2019-03-24T16:59:06.060Z,46.51
2019-03-24T17:02:13.174Z,46.84
2019-03-24T17:05:17.991Z,47.31
2019-03-24T17:08:23.748Z,47.48
2019-03-24T17:11:25.943Z,47.43
2019-03-24T17:14:29.707Z,47.76
2019-03-24T17:17:32.695Z,48.00
2019-03-24T17:20:35.019Z,48.08
2019-03-24T17:23:37.269Z,48.07
2019-03-24T17:26:41.560Z,48.33
2019-03-24T17:29:43.589Z,48.33
2019-03-24T17:32:45.512Z,48.71
2019-03-24T17:35:47.532Z,48.71
2019-03-24T17:38:49.432Z,48.70
2019-03-24T17:41:51.703Z,48.86
2019-03-24T17:44:53.666Z,48.80
2019-03-24T17:47:55.782Z,48.85
2019-03-24T17:50:57.955Z,48.97
2019-03-24T17:54:00.290Z,49.18
2019-03-24T17:57:02.346Z,49.16
2019-03-24T18:00:09.721Z,49.30
2019-03-24T18:03:11.629Z,49.15
2019-03-24T18:06:15.758Z,49.22
2019-03-24T18:09:17.939Z,49.18
2019-03-24T18:12:20.067Z,49.14
2019-03-24T18:15:24.534Z,49.28
2019-03-24T18:18:26.655Z,49.36
2019-03-24T18:21:30.435Z,49.44
2019-03-24T18:24:32.601Z,49.56
2019-03-24T18:27:34.487Z,49.78
2019-03-24T18:30:38.141Z,49.82
2019-03-24T18:33:40.149Z,49.98
2019-03-24T18:36:42.538Z,49.97
2019-03-24T18:39:44.433Z,50.03
2019-03-24T18:42:48.118Z,49.98
2019-03-24T18:45:50.107Z,50.34
2019-03-24T18:48:53.849Z,50.41
2019-03-24T18:51:56.161Z,50.49
2019-03-24T18:54:58.080Z,50.72
2019-03-24T18:58:00.432Z,50.92
2019-03-24T19:01:02.281Z,51.17
2019-03-24T19:04:04.214Z,51.35
2019-03-24T19:07:07.976Z,51.42
2019-03-24T19:10:14.418Z,51.51
2019-03-24T19:13:19.449Z,51.38
2019-03-24T19:16:25.116Z,51.38
2019-03-24T19:19:29.158Z,51.43
2019-03-24T19:22:33.862Z,51.48
2019-03-24T19:25:35.046Z,51.42
2019-03-24T19:28:37.901Z,51.49
2019-03-24T19:31:41.577Z,51.68
2019-03-24T19:34:44.482Z,51.77
2019-03-24T19:37:46.697Z,52.04
2019-03-24T19:40:48.983Z,52.18
2019-03-24T19:43:52.888Z,52.57
2019-03-24T19:46:56.870Z,52.78
2019-03-24T19:50:01.639Z,52.78
2019-03-24T19:53:03.654Z,53.08
2019-03-24T19:56:05.568Z,53.35
2019-03-24T19:59:09.374Z,53.35
2019-03-24T20:02:11.444Z,53.66
2019-03-24T20:05:18.630Z,53.29
2019-03-24T20:08:21.254Z,53.29
2019-03-24T20:11:26.719Z,53.38
2019-03-24T20:14:29.530Z,53.27
2019-03-24T20:17:34.895Z,53.26
2019-03-24T20:20:36.954Z,53.28
2019-03-24T20:23:40.657Z,53.27
2019-03-24T20:26:42.980Z,53.32
2019-03-24T20:29:45.039Z,53.24
2019-03-24T20:32:48.950Z,53.30
2019-03-24T20:35:51.493Z,53.03
2019-03-24T20:38:55.628Z,52.62
2019-03-24T20:41:58.159Z,52.54
2019-03-24T20:45:02.231Z,52.41
2019-03-24T20:48:05.665Z,52.35
2019-03-24T20:51:08.388Z,52.26
2019-03-24T20:54:10.350Z,52.27
2019-03-24T20:57:12.256Z,52.31
2019-03-24T21:00:15.983Z,52.29
2019-03-24T21:03:19.833Z,52.42
2019-03-24T21:06:21.668Z,52.89
2019-03-24T21:09:23.601Z,53.34
2019-03-24T21:12:25.488Z,53.57
2019-03-24T21:15:27.450Z,53.68
2019-03-24T21:18:29.378Z,53.83
2019-03-24T21:21:31.264Z,53.90
2019-03-24T21:24:33.179Z,53.85
2019-03-24T21:27:35.130Z,53.79
2019-03-24T21:30:39.084Z,53.77
2019-03-24T21:33:41.003Z,53.71
2019-03-24T21:36:43.022Z,53.59
2019-03-24T21:39:45.873Z,53.67
2019-03-24T21:42:47.823Z,53.72
2019-03-24T21:45:49.722Z,53.79
2019-03-24T21:48:51.732Z,54.10
2019-03-24T21:51:55.443Z,54.45
2019-03-24T21:54:57.402Z,54.70
2019-03-24T21:57:59.354Z,54.60
2019-03-24T22:01:01.363Z,54.69
2019-03-24T22:04:03.244Z,54.77
2019-03-24T22:07:05.121Z,54.93
2019-03-24T22:10:07.040Z,55.03
2019-03-24T22:13:08.929Z,55.01
2019-03-24T22:16:10.781Z,55.22
2019-03-24T22:19:12.905Z,55.11
2019-03-24T22:22:14.766Z,55.27
2019-03-24T22:25:16.689Z,55.42
2019-03-24T22:28:18.552Z,55.28
2019-03-24T22:31:20.461Z,55.33
2019-03-24T22:34:22.329Z,55.34
2019-03-24T22:37:24.195Z,55.15
2019-03-24T22:40:26.111Z,55.20
2019-03-24T22:43:27.961Z,55.12
2019-03-24T22:46:29.856Z,55.00
2019-03-24T22:49:31.768Z,55.00
2019-03-24T22:52:33.694Z,54.99
2019-03-24T22:55:35.566Z,55.01
2019-03-24T22:58:37.434Z,54.96
2019-03-24T23:01:39.312Z,54.76
2019-03-24T23:04:41.168Z,54.67
2019-03-24T23:07:43.006Z,54.76
2019-03-24T23:10:44.903Z,54.75
2019-03-24T23:13:46.742Z,54.78
2019-03-24T23:16:48.650Z,54.82
2019-03-24T23:19:51.152Z,54.78
2019-03-24T23:22:53.036Z,54.96
2019-03-24T23:25:54.935Z,54.91
2019-03-24T23:28:56.823Z,54.88
2019-03-24T23:31:59.776Z,55.03
2019-03-24T23:35:01.659Z,55.08
2019-03-24T23:38:03.540Z,55.14
2019-03-24T23:41:05.423Z,55.14
2019-03-24T23:44:07.375Z,55.24
2019-03-24T23:47:09.226Z,55.33
2019-03-24T23:50:11.446Z,55.24
2019-03-24T23:53:13.453Z,55.16
2019-03-24T23:56:16.483Z,55.20
2019-03-24T23:59:18.328Z,55.27
